createdAt,value
2023-02-27T00:00:18.744Z,3.32
2023-02-27T00:02:47.883Z,3.29
2023-02-27T00:06:47.362Z,3.13
2023-02-27T00:09:25.281Z,3.00
2023-02-27T00:11:53.956Z,3.01
2023-02-27T00:14:22.847Z,2.94
2023-02-27T00:16:59.112Z,2.88
2023-02-27T00:19:28.721Z,2.76
2023-02-27T00:21:57.102Z,2.67
2023-02-27T00:24:34.624Z,2.60
2023-02-27T00:27:09.651Z,2.61
2023-02-27T00:29:39.758Z,2.62
2023-02-27T00:32:08.098Z,2.58
2023-02-27T00:34:36.826Z,2.55
2023-02-27T00:37:05.204Z,2.53
2023-02-27T00:39:34.813Z,2.53
2023-02-27T00:42:03.194Z,2.53
2023-02-27T00:44:32.092Z,2.51
2023-02-27T00:47:00.572Z,2.47
2023-02-27T00:49:29.057Z,2.44
2023-02-27T00:51:57.334Z,2.40
2023-02-27T00:54:27.522Z,2.36
2023-02-27T00:56:55.934Z,2.35
2023-02-27T00:59:24.312Z,2.34
2023-02-27T01:01:54.231Z,2.35
2023-02-27T01:04:25.171Z,2.35
2023-02-27T01:06:55.308Z,2.35
2023-02-27T01:09:25.225Z,2.37
2023-02-27T01:11:54.015Z,2.36
2023-02-27T01:14:23.715Z,2.31
2023-02-27T01:16:52.199Z,2.26
2023-02-27T01:19:20.686Z,2.18
2023-02-27T01:21:49.477Z,2.09
2023-02-27T01:24:20.414Z,2.04
2023-02-27T01:26:49.928Z,1.99
2023-02-27T01:29:18.410Z,1.96
2023-02-27T01:31:47.603Z,1.95
2023-02-27T01:34:19.264Z,1.98
2023-02-27T01:36:47.641Z,1.95
2023-02-27T01:39:18.174Z,1.93
2023-02-27T01:41:46.875Z,1.94
2023-02-27T01:44:20.271Z,1.91
2023-02-27T01:46:49.461Z,1.85
2023-02-27T01:49:21.130Z,1.79
2023-02-27T01:51:55.540Z,1.72
2023-02-27T01:54:26.378Z,1.71
2023-02-27T01:56:54.695Z,1.69
2023-02-27T01:59:23.240Z,1.66
2023-02-27T02:01:51.931Z,1.65
2023-02-27T02:04:34.676Z,1.65
2023-02-27T02:07:05.085Z,1.69
2023-02-27T02:09:36.424Z,1.68
2023-02-27T02:12:04.913Z,1.68
2023-02-27T02:14:36.153Z,1.72
2023-02-27T02:17:07.918Z,1.72
2023-02-27T02:19:45.420Z,1.59
2023-02-27T02:22:32.631Z,1.66
2023-02-27T02:25:30.406Z,1.63
2023-02-27T02:28:10.962Z,1.58
2023-02-27T02:30:49.275Z,1.50
2023-02-27T02:33:30.045Z,1.42
2023-02-27T02:36:29.966Z,1.40
2023-02-27T02:39:13.709Z,1.42
2023-02-27T02:41:54.169Z,1.37
2023-02-27T02:44:40.984Z,1.35
2023-02-27T02:47:25.440Z,1.31
2023-02-27T02:50:01.575Z,1.26
2023-02-27T02:52:38.785Z,1.21
2023-02-27T02:55:13.223Z,1.18
2023-02-27T02:57:48.242Z,1.17
2023-02-27T03:00:21.639Z,1.21
2023-02-27T03:02:54.117Z,1.27
2023-02-27T03:05:28.435Z,1.30
2023-02-27T03:07:58.661Z,1.30
2023-02-27T03:10:33.590Z,1.32
2023-02-27T03:13:09.045Z,1.31
2023-02-27T03:15:45.886Z,1.30
2023-02-27T03:18:21.051Z,1.30
2023-02-27T03:20:58.954Z,1.24
2023-02-27T03:23:36.768Z,1.17
2023-02-27T03:26:07.495Z,1.09
2023-02-27T03:28:39.041Z,1.10
2023-02-27T03:31:12.150Z,1.14
2023-02-27T03:33:52.079Z,1.18
2023-02-27T03:36:43.525Z,1.21
2023-02-27T03:39:19.963Z,1.17
2023-02-27T03:42:16.502Z,1.17
2023-02-27T03:45:10.482Z,1.17
2023-02-27T03:47:39.576Z,1.13
2023-02-27T03:50:08.963Z,1.12
2023-02-27T03:52:37.466Z,1.11
2023-02-27T03:55:14.441Z,1.08
2023-02-27T03:57:43.332Z,1.03
2023-02-27T04:00:14.599Z,1.06
2023-02-27T04:02:50.700Z,1.13
2023-02-27T04:05:21.470Z,1.16
2023-02-27T04:08:16.477Z,1.18
2023-02-27T04:11:03.907Z,1.23
2023-02-27T04:13:58.802Z,1.22
2023-02-27T04:16:48.587Z,1.25
2023-02-27T04:19:44.212Z,1.26
2023-02-27T04:22:32.961Z,1.25
2023-02-27T04:25:24.696Z,1.19
2023-02-27T04:28:16.108Z,1.11
2023-02-27T04:31:30.614Z,1.07
2023-02-27T04:34:25.777Z,1.05
2023-02-27T04:36:57.339Z,1.07
2023-02-27T04:39:51.750Z,1.07
2023-02-27T04:42:24.511Z,1.13
2023-02-27T04:45:00.871Z,1.17
2023-02-27T04:47:32.731Z,1.22
2023-02-27T04:50:10.117Z,1.23
2023-02-27T04:52:42.124Z,1.22
2023-02-27T04:55:12.414Z,1.22
2023-02-27T04:57:47.090Z,1.24
2023-02-27T05:00:16.030Z,1.25
2023-02-27T05:02:47.978Z,1.23
2023-02-27T05:05:18.827Z,1.19
2023-02-27T05:07:53.146Z,1.20
2023-02-27T05:10:28.489Z,1.25
2023-02-27T05:13:07.824Z,1.26
2023-02-27T05:15:49.171Z,1.27
2023-02-27T05:18:19.235Z,1.28
2023-02-27T05:21:16.686Z,1.26
2023-02-27T05:24:04.130Z,1.24
2023-02-27T05:26:33.003Z,1.20
2023-02-27T05:29:28.416Z,1.18
2023-02-27T05:32:21.594Z,1.18
2023-02-27T05:34:57.760Z,1.15
2023-02-27T05:37:32.874Z,1.11
2023-02-27T05:40:01.876Z,1.18
2023-02-27T05:42:36.326Z,1.28
2023-02-27T05:45:10.105Z,1.35
2023-02-27T05:47:41.234Z,1.34
2023-02-27T05:50:14.421Z,1.36
2023-02-27T05:52:42.708Z,1.37
2023-02-27T05:55:20.402Z,1.37
2023-02-27T05:57:53.096Z,1.35
2023-02-27T06:00:40.720Z,1.30
2023-02-27T06:03:10.180Z,1.29
2023-02-27T06:05:40.397Z,1.22
2023-02-27T06:08:09.544Z,1.13
2023-02-27T06:10:44.165Z,1.10
2023-02-27T06:13:12.759Z,1.13
2023-02-27T06:15:42.259Z,1.22
2023-02-27T06:18:15.290Z,1.25
2023-02-27T06:20:45.170Z,1.29
2023-02-27T06:23:14.052Z,1.35
2023-02-27T06:25:43.763Z,1.39
2023-02-27T06:28:12.244Z,1.40
2023-02-27T06:30:40.866Z,1.41
2023-02-27T06:33:09.917Z,1.41
2023-02-27T06:35:39.602Z,1.40
2023-02-27T06:38:08.111Z,1.38
2023-02-27T06:40:36.692Z,1.36
2023-02-27T06:43:05.280Z,1.33
2023-02-27T06:45:33.759Z,1.32
2023-02-27T06:48:02.238Z,1.34
2023-02-27T06:50:30.737Z,1.35
2023-02-27T06:52:59.310Z,1.36
2023-02-27T06:55:28.119Z,1.38
2023-02-27T06:57:56.477Z,1.43
2023-02-27T07:00:25.168Z,1.47
2023-02-27T07:02:53.537Z,1.47
2023-02-27T07:05:22.947Z,1.43
2023-02-27T07:07:51.934Z,1.44
2023-02-27T07:10:20.830Z,1.49
2023-02-27T07:12:49.758Z,1.50
2023-02-27T07:15:19.122Z,1.52
2023-02-27T07:17:47.503Z,1.56
2023-02-27T07:20:18.850Z,1.61
2023-02-27T07:22:47.751Z,1.63
2023-02-27T07:25:16.344Z,1.58
2023-02-27T07:27:46.357Z,1.53
2023-02-27T07:30:16.782Z,1.51
2023-02-27T07:32:45.250Z,1.47
2023-02-27T07:35:13.825Z,1.44
2023-02-27T07:37:42.534Z,1.44
2023-02-27T07:40:12.448Z,1.45
2023-02-27T07:42:40.935Z,1.47
2023-02-27T07:45:10.219Z,1.50
2023-02-27T07:47:38.615Z,1.56
2023-02-27T07:50:07.775Z,1.61
2023-02-27T07:52:36.397Z,1.66
2023-02-27T07:55:04.979Z,1.69
2023-02-27T07:57:34.186Z,1.82
2023-02-27T08:00:04.581Z,1.95
2023-02-27T08:02:40.494Z,2.02
2023-02-27T08:05:09.050Z,2.04
2023-02-27T08:07:37.849Z,2.07
2023-02-27T08:10:07.760Z,2.14
2023-02-27T08:12:36.335Z,2.22
2023-02-27T08:15:05.779Z,2.28
2023-02-27T08:17:36.480Z,2.24
2023-02-27T08:20:07.635Z,2.26
2023-02-27T08:22:36.613Z,2.24
2023-02-27T08:25:07.932Z,2.27
2023-02-27T08:27:36.342Z,2.27
2023-02-27T08:30:06.799Z,2.30
2023-02-27T08:32:35.414Z,2.34
2023-02-27T08:35:04.044Z,2.36
2023-02-27T08:37:32.523Z,2.37
2023-02-27T08:40:02.336Z,2.36
2023-02-27T08:42:31.024Z,2.32
2023-02-27T08:45:00.120Z,2.26
2023-02-27T08:47:28.599Z,2.19
2023-02-27T08:49:56.982Z,2.14
2023-02-27T08:52:25.464Z,2.12
2023-02-27T08:54:53.840Z,2.13
2023-02-27T08:57:22.423Z,2.15
2023-02-27T08:59:50.887Z,2.18
2023-02-27T09:02:23.850Z,2.20
2023-02-27T09:04:53.521Z,1.93
2023-02-27T09:07:21.866Z,2.25
2023-02-27T09:09:50.370Z,2.23
2023-02-27T09:12:21.728Z,2.21
2023-02-27T09:14:50.203Z,2.22
2023-02-27T09:17:21.348Z,2.18
2023-02-27T09:19:52.698Z,2.12
2023-02-27T09:22:21.280Z,2.12
2023-02-27T09:24:51.097Z,2.13
2023-02-27T09:27:19.479Z,2.06
2023-02-27T09:29:49.594Z,2.17
2023-02-27T09:32:18.116Z,2.19
2023-02-27T09:34:46.566Z,2.22
2023-02-27T09:37:15.863Z,2.24
2023-02-27T09:39:46.242Z,2.30
2023-02-27T09:42:23.070Z,2.40
2023-02-27T09:44:57.106Z,2.46
2023-02-27T09:47:26.911Z,2.45
2023-02-27T09:49:59.578Z,2.43
2023-02-27T09:52:29.107Z,2.36
2023-02-27T09:54:57.561Z,2.25
2023-02-27T09:58:08.234Z,2.37
2023-02-27T10:00:49.722Z,2.45
2023-02-27T10:03:21.297Z,2.49
2023-02-27T10:06:23.450Z,2.54
2023-02-27T10:09:06.984Z,2.62
2023-02-27T10:12:14.713Z,2.63
2023-02-27T10:15:11.022Z,2.61
2023-02-27T10:17:42.384Z,2.57
2023-02-27T10:20:34.720Z,2.55
2023-02-27T10:23:11.875Z,2.58
2023-02-27T10:25:45.606Z,2.60
2023-02-27T10:28:16.854Z,2.60
2023-02-27T10:30:48.674Z,2.58
2023-02-27T10:33:36.042Z,2.54
2023-02-27T10:36:20.630Z,2.48
2023-02-27T10:39:05.380Z,2.48
2023-02-27T10:41:35.721Z,2.48
2023-02-27T10:44:05.203Z,2.50
2023-02-27T10:46:38.413Z,2.48
2023-02-27T10:49:20.306Z,2.45
2023-02-27T10:52:16.008Z,2.42
2023-02-27T10:54:45.830Z,2.38
2023-02-27T10:57:40.721Z,2.31
2023-02-27T11:00:23.536Z,2.28
2023-02-27T11:02:54.776Z,2.21
2023-02-27T11:05:30.224Z,2.22
2023-02-27T11:08:20.926Z,2.24
2023-02-27T11:10:57.908Z,2.25
2023-02-27T11:13:30.586Z,2.26
2023-02-27T11:16:08.588Z,2.29
2023-02-27T11:18:39.741Z,2.31
2023-02-27T11:21:23.079Z,2.31
2023-02-27T11:24:17.668Z,2.27
2023-02-27T11:26:57.517Z,2.31
2023-02-27T11:29:26.504Z,2.34
2023-02-27T11:31:59.700Z,2.35
2023-02-27T11:34:29.733Z,2.37
2023-02-27T11:37:04.964Z,2.41
2023-02-27T11:39:40.512Z,2.44
2023-02-27T11:42:22.719Z,2.45
2023-02-27T11:44:55.706Z,2.52
2023-02-27T11:47:28.971Z,2.56
2023-02-27T11:50:13.985Z,2.61
2023-02-27T11:53:01.928Z,2.66
2023-02-27T11:55:30.386Z,2.67
2023-02-27T11:58:13.404Z,2.63
2023-02-27T12:00:51.109Z,2.58
2023-02-27T12:03:50.475Z,2.55
2023-02-27T12:06:27.192Z,2.54
2023-02-27T12:09:05.938Z,2.54
2023-02-27T12:11:41.559Z,2.56
2023-02-27T12:14:39.159Z,2.60
2023-02-27T12:17:23.575Z,2.61
2023-02-27T12:20:05.470Z,2.71
2023-02-27T12:24:53.131Z,2.89
2023-02-27T12:27:25.182Z,2.99
2023-02-27T12:30:00.630Z,3.02
2023-02-27T12:32:36.838Z,2.97
2023-02-27T12:35:17.601Z,2.90
2023-02-27T12:37:46.348Z,2.80
2023-02-27T12:40:18.729Z,2.69
2023-02-27T12:42:55.903Z,2.56
2023-02-27T12:45:41.971Z,2.49
2023-02-27T12:48:34.950Z,2.41
2023-02-27T12:51:43.675Z,2.32
2023-02-27T12:54:21.886Z,2.21
2023-02-27T12:57:02.467Z,2.12
2023-02-27T12:59:44.658Z,2.04
2023-02-27T13:02:47.135Z,1.96
2023-02-27T13:05:28.467Z,1.89
2023-02-27T13:08:21.966Z,1.85
2023-02-27T13:10:56.933Z,1.81
2023-02-27T13:13:52.356Z,1.78
2023-02-27T13:16:26.929Z,1.77
2023-02-27T13:19:06.854Z,1.77
2023-02-27T13:21:44.822Z,1.77
2023-02-27T13:24:27.104Z,1.74
2023-02-27T13:27:19.575Z,1.71
2023-02-27T13:30:02.081Z,1.73
2023-02-27T13:32:44.613Z,1.76
2023-02-27T13:35:27.004Z,1.81
2023-02-27T13:37:58.556Z,1.81
2023-02-27T13:40:38.206Z,1.74
2023-02-27T13:43:38.156Z,1.68
2023-02-27T13:46:31.380Z,1.64
2023-02-27T13:49:05.928Z,1.62
2023-02-27T13:51:40.734Z,1.61
2023-02-27T13:54:15.402Z,1.59
2023-02-27T13:56:45.480Z,1.60
2023-02-27T13:59:42.145Z,1.58
2023-02-27T14:02:22.413Z,1.56
2023-02-27T14:04:53.971Z,1.54
2023-02-27T14:07:24.387Z,1.50
2023-02-27T14:10:00.418Z,1.49
2023-02-27T14:12:44.054Z,1.49
2023-02-27T14:15:24.117Z,1.47
2023-02-27T14:18:09.608Z,1.45
2023-02-27T14:20:41.986Z,1.44
2023-02-27T14:23:17.624Z,1.42
2023-02-27T14:25:58.176Z,1.44
2023-02-27T14:28:30.572Z,1.43
2023-02-27T14:31:24.461Z,1.43
2023-02-27T14:33:55.397Z,1.47
2023-02-27T14:36:26.208Z,1.50
2023-02-27T14:38:58.487Z,1.55
2023-02-27T14:41:36.690Z,1.59
2023-02-27T14:44:05.388Z,1.59
2023-02-27T14:46:39.306Z,1.55
2023-02-27T14:49:16.578Z,1.53
2023-02-27T14:51:45.058Z,1.52
2023-02-27T14:54:18.559Z,1.51
2023-02-27T14:56:58.219Z,1.49
2023-02-27T14:59:31.706Z,1.45
2023-02-27T15:02:07.237Z,1.42
2023-02-27T15:04:36.588Z,1.37
2023-02-27T15:07:05.082Z,1.34
2023-02-27T15:09:35.979Z,1.35
2023-02-27T15:12:05.101Z,1.35
2023-02-27T15:14:36.584Z,1.36
2023-02-27T15:17:19.795Z,1.34
2023-02-27T15:19:58.874Z,1.34
2023-02-27T15:22:38.887Z,1.34
2023-02-27T15:25:32.217Z,1.35
2023-02-27T15:28:03.432Z,1.30
2023-02-27T15:30:32.654Z,1.26
2023-02-27T15:33:02.416Z,1.27
2023-02-27T15:35:38.072Z,1.28
2023-02-27T15:38:07.848Z,1.27
2023-02-27T15:40:38.870Z,1.21
2023-02-27T15:43:07.372Z,1.15
2023-02-27T15:45:35.955Z,1.13
2023-02-27T15:48:04.677Z,1.10
2023-02-27T15:50:37.564Z,1.02
2023-02-27T15:53:38.462Z,1.07
2023-02-27T15:56:10.013Z,1.05
2023-02-27T15:58:49.143Z,1.04
2023-02-27T16:01:19.526Z,1.04
2023-02-27T16:03:51.744Z,1.05
2023-02-27T16:06:32.777Z,1.04
2023-02-27T16:09:03.955Z,1.01
2023-02-27T16:11:34.589Z,0.98
2023-02-27T16:14:02.970Z,0.99
2023-02-27T16:16:36.394Z,1.04
2023-02-27T16:19:27.173Z,1.15
2023-02-27T16:22:11.419Z,1.22
2023-02-27T16:24:40.913Z,1.24
2023-02-27T16:27:26.023Z,1.26
2023-02-27T16:29:55.911Z,1.28
2023-02-27T16:32:35.632Z,1.26
2023-02-27T16:35:06.678Z,1.23
2023-02-27T16:37:36.207Z,1.22
2023-02-27T16:40:25.345Z,1.21
2023-02-27T16:42:54.372Z,1.17
2023-02-27T16:45:27.468Z,1.10
2023-02-27T16:47:59.729Z,1.06
2023-02-27T16:50:33.439Z,1.05
2023-02-27T16:53:01.833Z,1.05
2023-02-27T16:55:33.757Z,1.05
2023-02-27T16:58:02.570Z,1.04
2023-02-27T17:00:31.060Z,1.01
2023-02-27T17:02:59.539Z,1.01
2023-02-27T17:05:27.924Z,1.03
2023-02-27T17:07:57.939Z,1.05
2023-02-27T17:10:26.522Z,1.00
2023-02-27T17:12:59.518Z,0.95
2023-02-27T17:15:29.440Z,0.92
2023-02-27T17:17:58.018Z,0.90
2023-02-27T17:20:28.386Z,0.87
2023-02-27T17:22:59.998Z,0.85
2023-02-27T17:25:28.784Z,0.82
2023-02-27T17:27:57.142Z,0.80
2023-02-27T17:30:25.700Z,0.79
2023-02-27T17:32:54.344Z,0.81
2023-02-27T17:35:23.345Z,0.84
2023-02-27T17:37:51.917Z,0.85
2023-02-27T17:40:24.695Z,0.87
2023-02-27T17:42:53.389Z,0.88
2023-02-27T17:45:21.873Z,0.92
2023-02-27T17:47:50.659Z,0.92
2023-02-27T17:50:19.042Z,0.94
2023-02-27T17:52:47.950Z,0.92
2023-02-27T17:55:17.228Z,0.90
2023-02-27T17:57:46.326Z,0.87
2023-02-27T18:00:15.736Z,0.86
2023-02-27T18:02:48.359Z,0.89
2023-02-27T18:05:16.995Z,0.87
2023-02-27T18:07:45.394Z,0.87
2023-02-27T18:10:14.738Z,0.85
2023-02-27T18:12:43.370Z,0.82
2023-02-27T18:15:12.463Z,0.82
2023-02-27T18:17:43.405Z,0.80
2023-02-27T18:20:12.752Z,0.77
2023-02-27T18:22:41.705Z,0.76
2023-02-27T18:25:10.710Z,0.69
2023-02-27T18:27:39.177Z,0.64
2023-02-27T18:30:08.271Z,0.68
2023-02-27T18:32:38.800Z,0.73
2023-02-27T18:35:07.989Z,0.72
2023-02-27T18:37:36.381Z,0.72
2023-02-27T18:40:06.198Z,0.70
2023-02-27T18:42:36.418Z,0.75
2023-02-27T18:45:05.963Z,0.80
2023-02-27T18:47:34.310Z,0.80
2023-02-27T18:50:02.692Z,0.84
2023-02-27T18:52:31.788Z,0.88
2023-02-27T18:55:00.266Z,0.93
2023-02-27T18:57:31.437Z,0.94
2023-02-27T18:59:59.897Z,0.98
2023-02-27T19:02:28.607Z,0.99
2023-02-27T19:04:56.975Z,0.99
2023-02-27T19:07:25.968Z,0.96
2023-02-27T19:09:57.819Z,0.91
2023-02-27T19:12:27.002Z,0.88
2023-02-27T19:14:57.660Z,0.85
2023-02-27T19:17:26.237Z,0.82
2023-02-27T19:19:55.028Z,0.79
2023-02-27T19:22:25.006Z,0.78
2023-02-27T19:24:53.527Z,0.73
2023-02-27T19:27:22.012Z,0.69
2023-02-27T19:29:51.017Z,0.66
2023-02-27T19:32:19.662Z,0.62
2023-02-27T19:34:48.583Z,0.59
2023-02-27T19:37:17.169Z,0.55
2023-02-27T19:39:46.676Z,0.51
2023-02-27T19:42:15.776Z,0.48
2023-02-27T19:44:45.280Z,0.47
2023-02-27T19:47:14.172Z,0.46
2023-02-27T19:49:42.858Z,0.37
2023-02-27T19:52:11.345Z,0.31
2023-02-27T19:54:39.830Z,0.33
2023-02-27T19:57:08.924Z,0.34
2023-02-27T19:59:37.814Z,0.35
2023-02-27T20:02:07.122Z,0.34
2023-02-27T20:04:35.705Z,0.33
2023-02-27T20:07:04.390Z,0.34
2023-02-27T20:09:34.104Z,0.34
2023-02-27T20:12:02.688Z,0.36
2023-02-27T20:14:34.553Z,0.34
2023-02-27T20:17:03.439Z,0.33
2023-02-27T20:19:31.960Z,0.32
2023-02-27T20:22:00.815Z,0.32
2023-02-27T20:24:29.707Z,0.31
2023-02-27T20:26:59.392Z,0.27
2023-02-27T20:29:28.013Z,0.24
2023-02-27T20:31:57.639Z,0.21
2023-02-27T20:34:26.673Z,0.19
2023-02-27T20:36:55.513Z,0.14
2023-02-27T20:39:24.152Z,0.10
2023-02-27T20:41:52.566Z,0.09
2023-02-27T20:44:21.257Z,0.08
2023-02-27T20:46:49.941Z,0.08
2023-02-27T20:49:21.090Z,0.08
2023-02-27T20:51:49.798Z,0.08
2023-02-27T20:54:22.373Z,0.07
2023-02-27T20:56:52.491Z,0.07
2023-02-27T20:59:22.009Z,0.04
2023-02-27T21:01:53.366Z,0.00
2023-02-27T21:04:42.473Z,-0.02
2023-02-27T21:07:12.190Z,-0.00
2023-02-27T21:09:42.459Z,0.01
2023-02-27T21:12:10.930Z,0.02
2023-02-27T21:14:44.273Z,0.06
2023-02-27T21:17:14.023Z,0.06
2023-02-27T21:19:46.612Z,0.05
2023-02-27T21:22:16.528Z,0.04
2023-02-27T21:24:46.853Z,0.04
2023-02-27T21:27:16.783Z,0.03
2023-02-27T21:29:45.251Z,0.01
2023-02-27T21:32:14.015Z,-0.11
2023-02-27T21:34:42.533Z,-0.16
2023-02-27T21:37:12.755Z,-0.15
2023-02-27T21:39:50.757Z,-0.15
2023-02-27T21:42:19.140Z,-0.15
2023-02-27T21:44:47.929Z,-0.16
2023-02-27T21:47:17.027Z,-0.17
2023-02-27T21:49:45.514Z,-0.16
2023-02-27T21:52:14.098Z,-0.15
2023-02-27T21:54:42.583Z,-0.14
2023-02-27T21:57:11.167Z,-0.14
2023-02-27T21:59:42.725Z,-0.14
2023-02-27T22:02:12.332Z,-0.15
2023-02-27T22:04:41.845Z,-0.16
2023-02-27T22:07:11.509Z,-0.19
2023-02-27T22:09:45.869Z,-0.22
2023-02-27T22:12:16.213Z,-0.22
2023-02-27T22:14:44.987Z,-0.21
2023-02-27T22:17:13.372Z,-0.21
2023-02-27T22:19:41.954Z,-0.19
2023-02-27T22:22:10.643Z,-0.18
2023-02-27T22:24:42.109Z,-0.18
2023-02-27T22:27:11.190Z,-0.19
2023-02-27T22:29:42.180Z,-0.18
2023-02-27T22:32:11.677Z,-0.16
2023-02-27T22:34:44.830Z,-0.16
2023-02-27T22:37:16.390Z,-0.16
2023-02-27T22:39:46.214Z,-0.14
2023-02-27T22:42:14.583Z,-0.13
2023-02-27T22:44:43.682Z,-0.15
2023-02-27T22:47:12.062Z,-0.19
2023-02-27T22:49:44.850Z,-0.23
2023-02-27T22:52:13.230Z,-0.26
2023-02-27T22:54:41.610Z,-0.28
2023-02-27T22:57:10.605Z,-0.29
2023-02-27T22:59:45.335Z,-0.36
2023-02-27T23:02:14.124Z,-0.32
2023-02-27T23:04:42.608Z,-0.30
2023-02-27T23:07:11.500Z,-0.28
2023-02-27T23:09:39.984Z,-0.26
2023-02-27T23:12:08.466Z,-0.24
2023-02-27T23:14:38.602Z,-0.29
2023-02-27T23:17:07.483Z,-0.30
2023-02-27T23:19:36.794Z,-0.31
2023-02-27T23:22:06.493Z,-0.33
2023-02-27T23:24:38.611Z,-0.35
2023-02-27T23:27:25.314Z,-0.36
2023-02-27T23:29:54.785Z,-0.37
2023-02-27T23:32:23.691Z,-0.38
2023-02-27T23:34:52.977Z,-0.36
2023-02-27T23:37:21.665Z,-0.34
2023-02-27T23:39:54.346Z,-0.33
2023-02-27T23:42:41.978Z,-0.34
2023-02-27T23:45:23.453Z,-0.35
2023-02-27T23:47:54.817Z,-0.42
2023-02-27T23:50:25.554Z,-0.46
2023-02-27T23:52:54.858Z,-0.46
2023-02-27T23:55:23.550Z,-0.45
2023-02-27T23:57:53.473Z,-0.46
